Terminal Aerodrome Forecast
Issued by NWS Hastings, NE

Home | Current Version | Previous Version | Text Only | Print | Product List | Glossary On
Versions: 1 2 3 4 5 6 7 8 9 10 11 12 13 14 15
000
FTUS43 KGID 242320
TAFGRI
TAF
KGRI 242320Z 2500/2524 33016G23KT P6SM -DZ OVC008
     FM250500 34014G20KT 6SM -RA OVC008
     FM251400 36013KT P6SM BKN020
     FM251900 01010KT P6SM SCT040
     FM252300 VRB05KT P6SM SKC=

USA.gov is the U.S. government's official web portal to all federal, state and local government web resources and services.